createdAt,value
2022-12-25T00:00:46.386Z,38.70
2022-12-25T00:06:16.126Z,35.80
2022-12-25T00:11:23.396Z,31.90
2022-12-25T00:16:30.543Z,34.50
2022-12-25T00:21:37.768Z,27.20
2022-12-25T00:26:44.833Z,32.70
2022-12-25T00:31:52.003Z,27.00
2022-12-25T00:36:58.960Z,27.50
2022-12-25T00:42:21.394Z,26.70
2022-12-25T00:47:30.565Z,24.50
2022-12-25T00:52:37.620Z,20.40
2022-12-25T00:57:44.588Z,18.40
2022-12-25T01:02:51.712Z,16.30
2022-12-25T01:07:58.882Z,14.20
2022-12-25T01:13:05.767Z,19.20
2022-12-25T01:18:13.067Z,14.70
2022-12-25T01:23:20.426Z,18.00
2022-12-25T01:28:27.373Z,17.00
2022-12-25T01:33:35.750Z,17.20
2022-12-25T01:38:42.999Z,15.00
2022-12-25T01:44:05.771Z,13.40
2022-12-25T01:49:16.335Z,18.60
2022-12-25T01:54:28.388Z,20.20
2022-12-25T01:59:35.833Z,18.60
2022-12-25T02:04:49.447Z,20.30
2022-12-25T02:09:57.053Z,21.20
2022-12-25T02:15:07.038Z,20.70
2022-12-25T02:20:41.443Z,50.20
2022-12-25T02:26:04.623Z,22.30
2022-12-25T02:31:14.934Z,45.20
2022-12-25T02:36:27.943Z,46.50
2022-12-25T02:41:40.606Z,51.60
2022-12-25T02:47:05.906Z,49.80
2022-12-25T02:52:34.323Z,55.60
2022-12-25T02:58:04.425Z,44.70
2022-12-25T03:03:31.860Z,47.10
2022-12-25T03:08:43.541Z,40.60
2022-12-25T03:13:53.349Z,34.00
2022-12-25T03:19:21.330Z,44.30
2022-12-25T03:24:46.137Z,44.80
2022-12-25T03:30:11.021Z,40.80
2022-12-25T03:35:25.648Z,57.20
2022-12-25T03:40:58.128Z,53.80
2022-12-25T03:46:28.681Z,64.30
2022-12-25T03:51:58.569Z,75.50
2022-12-25T03:57:23.596Z,49.60
2022-12-25T04:02:48.297Z,50.60
2022-12-25T04:08:13.276Z,51.90
2022-12-25T04:13:47.033Z,53.50
2022-12-25T04:19:11.543Z,50.40
2022-12-25T04:24:36.448Z,42.80
2022-12-25T04:30:00.921Z,38.10
2022-12-25T04:35:26.757Z,46.40
2022-12-25T04:40:34.186Z,48.10
2022-12-25T04:45:41.116Z,36.50
2022-12-25T04:50:48.203Z,39.50
2022-12-25T04:56:03.526Z,48.30
2022-12-25T05:01:10.940Z,50.10
2022-12-25T05:06:17.979Z,58.00
2022-12-25T05:11:24.790Z,58.70
2022-12-25T05:16:31.836Z,65.60
2022-12-25T05:21:38.930Z,51.50
2022-12-25T05:26:45.921Z,48.50
2022-12-25T05:31:52.830Z,47.90
2022-12-25T05:36:59.972Z,38.20
2022-12-25T05:42:07.064Z,37.00
2022-12-25T05:47:13.991Z,38.20
2022-12-25T05:52:20.837Z,31.60
2022-12-25T05:57:29.155Z,33.80
2022-12-25T06:02:40.354Z,38.40
2022-12-25T06:07:47.581Z,33.10
2022-12-25T06:12:56.650Z,29.60
2022-12-25T06:18:03.992Z,32.70
2022-12-25T06:23:11.402Z,28.20
2022-12-25T06:28:18.414Z,28.70
2022-12-25T06:33:25.303Z,25.20
2022-12-25T06:38:32.702Z,24.40
2022-12-25T06:43:40.267Z,29.00
2022-12-25T06:48:49.603Z,32.60
2022-12-25T06:53:58.120Z,27.20
2022-12-25T06:59:07.015Z,25.10
2022-12-25T07:04:18.219Z,27.10
2022-12-25T07:09:25.147Z,25.70
2022-12-25T07:14:32.328Z,26.60
2022-12-25T07:19:44.696Z,26.70
2022-12-25T07:24:52.509Z,38.90
2022-12-25T07:29:59.387Z,28.30
2022-12-25T07:35:07.310Z,33.50
2022-12-25T07:40:15.183Z,59.20
2022-12-25T07:45:22.338Z,51.80
2022-12-25T07:50:29.277Z,50.60
2022-12-25T07:55:36.351Z,51.80
2022-12-25T08:00:43.297Z,59.80
2022-12-25T08:05:50.510Z,54.00
2022-12-25T08:10:57.501Z,67.60
2022-12-25T08:16:07.952Z,64.90
2022-12-25T08:21:16.005Z,71.10
2022-12-25T08:26:25.067Z,84.50
2022-12-25T08:31:33.461Z,81.90
2022-12-25T08:36:42.977Z,91.10
2022-12-25T08:41:50.258Z,101.70
2022-12-25T08:46:57.189Z,108.30
2022-12-25T08:52:04.075Z,113.30
2022-12-25T08:57:11.087Z,123.50
2022-12-25T09:02:19.790Z,112.70
2022-12-25T09:07:27.657Z,111.90
2022-12-25T09:12:37.927Z,98.70
2022-12-25T09:17:44.935Z,104.80
2022-12-25T09:22:52.099Z,97.50
2022-12-25T09:27:59.874Z,112.20
2022-12-25T09:33:07.251Z,113.40
2022-12-25T09:38:14.183Z,110.60
2022-12-25T09:43:24.635Z,101.30
2022-12-25T09:48:34.899Z,94.40
2022-12-25T09:53:46.358Z,96.50
2022-12-25T09:58:54.839Z,89.40
2022-12-25T10:04:40.614Z,79.20
2022-12-25T10:10:00.909Z,73.90
2022-12-25T10:15:31.102Z,86.40
2022-12-25T10:20:47.047Z,74.20
2022-12-25T10:25:55.274Z,82.20
2022-12-25T10:31:16.905Z,66.20
2022-12-25T10:36:26.998Z,77.90
2022-12-25T10:41:54.529Z,70.60
2022-12-25T10:47:03.213Z,61.00
2022-12-25T10:52:23.406Z,61.90
2022-12-25T10:57:30.538Z,65.10
2022-12-25T11:02:41.820Z,59.00
2022-12-25T11:07:55.123Z,57.70
2022-12-25T11:13:06.303Z,58.70
2022-12-25T11:18:25.592Z,50.90
2022-12-25T11:23:35.067Z,51.30
2022-12-25T11:28:45.965Z,42.50
2022-12-25T11:34:00.297Z,59.70
2022-12-25T11:39:21.749Z,48.00
2022-12-25T11:44:43.639Z,41.50
2022-12-25T11:55:17.285Z,49.80
2022-12-25T12:00:26.635Z,37.50
2022-12-25T12:05:40.201Z,55.10
2022-12-25T12:11:16.095Z,96.70
2022-12-25T12:16:24.013Z,35.60
2022-12-25T12:21:32.819Z,27.20
2022-12-25T12:26:42.641Z,29.20
2022-12-25T12:37:06.132Z,52.00
2022-12-25T12:42:20.157Z,43.50
2022-12-25T12:53:27.959Z,67.20
2022-12-25T12:58:45.329Z,62.90
2022-12-25T13:04:17.241Z,118.50
2022-12-25T13:09:36.681Z,83.80
2022-12-25T13:14:50.386Z,49.80
2022-12-25T13:20:02.403Z,29.70
2022-12-25T13:25:22.474Z,29.80
2022-12-25T13:30:34.164Z,38.20
2022-12-25T13:41:16.693Z,95.00
2022-12-25T13:46:28.576Z,55.20
2022-12-25T13:51:35.868Z,63.70
2022-12-25T13:56:53.480Z,86.30
2022-12-25T14:02:04.282Z,46.70
2022-12-25T14:07:13.665Z,39.50
2022-12-25T14:12:21.417Z,86.30
2022-12-25T14:17:29.491Z,85.20
2022-12-25T14:22:38.690Z,65.60
2022-12-25T14:27:51.757Z,42.80
2022-12-25T14:32:59.954Z,29.20
2022-12-25T14:38:11.654Z,117.50
2022-12-25T14:43:26.952Z,84.80
2022-12-25T14:48:34.880Z,54.00
2022-12-25T14:53:51.364Z,46.20
2022-12-25T14:59:00.134Z,48.70
2022-12-25T15:04:14.390Z,43.00
2022-12-25T15:09:21.367Z,39.30
2022-12-25T15:14:32.182Z,29.70
2022-12-25T15:19:46.074Z,47.50
2022-12-25T15:25:00.372Z,39.00
2022-12-25T15:30:11.407Z,42.90
2022-12-25T15:35:22.294Z,45.20
2022-12-25T15:40:30.403Z,45.90
2022-12-25T15:45:38.393Z,38.20
2022-12-25T15:50:46.932Z,45.80
2022-12-25T15:55:54.229Z,41.30
2022-12-25T16:01:01.473Z,32.90
2022-12-25T16:06:11.097Z,49.80
2022-12-25T16:11:18.066Z,52.00
2022-12-25T16:16:25.899Z,51.00
2022-12-25T16:21:42.257Z,60.60
2022-12-25T16:26:49.484Z,51.60
2022-12-25T16:31:56.928Z,51.50
2022-12-25T16:37:04.465Z,53.30
2022-12-25T16:42:12.527Z,48.90
2022-12-25T16:47:24.004Z,53.80
2022-12-25T16:52:31.730Z,47.10
2022-12-25T16:57:40.905Z,51.00
2022-12-25T17:02:51.585Z,51.40
2022-12-25T17:08:04.105Z,49.90
2022-12-25T17:13:13.485Z,54.40
2022-12-25T17:18:22.539Z,50.80
2022-12-25T17:23:32.210Z,53.70
2022-12-25T17:28:42.373Z,61.10
2022-12-25T17:33:50.095Z,55.70
2022-12-25T17:39:04.609Z,64.20
2022-12-25T17:44:15.145Z,53.40
2022-12-25T17:49:23.614Z,61.60
2022-12-25T17:54:30.804Z,55.30
2022-12-25T17:59:37.795Z,60.20
2022-12-25T18:04:45.080Z,61.00
2022-12-25T18:09:51.954Z,72.80
2022-12-25T18:14:58.976Z,67.90
2022-12-25T18:20:07.137Z,63.40
2022-12-25T18:25:14.148Z,65.80
2022-12-25T18:30:21.518Z,76.80
2022-12-25T18:35:29.977Z,74.70
2022-12-25T18:40:40.685Z,79.40
2022-12-25T18:45:47.584Z,70.20
2022-12-25T18:50:59.516Z,73.20
2022-12-25T18:56:10.748Z,63.20
2022-12-25T19:01:19.486Z,70.00
2022-12-25T19:06:29.787Z,75.10
2022-12-25T19:11:42.062Z,71.10
2022-12-25T19:16:52.284Z,72.50
2022-12-25T19:22:00.034Z,83.60
2022-12-25T19:27:07.454Z,75.40
2022-12-25T19:32:14.419Z,71.10
2022-12-25T19:37:21.408Z,72.30
2022-12-25T19:42:28.330Z,66.80
2022-12-25T19:47:35.333Z,55.40
2022-12-25T19:52:42.161Z,58.10
2022-12-25T19:57:49.010Z,70.80
2022-12-25T20:02:56.003Z,66.60
2022-12-25T20:08:04.418Z,58.40
2022-12-25T20:13:11.350Z,65.90
2022-12-25T20:18:18.481Z,62.30
2022-12-25T20:23:25.783Z,55.60
2022-12-25T20:28:34.554Z,60.80
2022-12-25T20:33:42.178Z,52.70
2022-12-25T20:38:49.275Z,60.40
2022-12-25T20:43:56.465Z,49.70
2022-12-25T20:49:03.802Z,51.40
2022-12-25T20:54:12.782Z,64.00
2022-12-25T20:59:19.751Z,55.80
2022-12-25T21:04:29.233Z,60.80
2022-12-25T21:09:36.730Z,59.70
2022-12-25T21:14:43.700Z,72.80
2022-12-25T21:19:50.763Z,47.30
2022-12-25T21:24:57.731Z,57.40
2022-12-25T21:30:14.257Z,50.80
2022-12-25T21:35:22.946Z,49.70
2022-12-25T21:40:30.343Z,51.90
2022-12-25T21:45:37.595Z,46.80
2022-12-25T21:51:02.397Z,47.90
2022-12-25T21:56:09.977Z,41.90
2022-12-25T22:01:17.543Z,47.40
2022-12-25T22:06:43.946Z,45.70
2022-12-25T22:12:08.633Z,41.20
2022-12-25T22:17:33.541Z,44.80
2022-12-25T22:22:40.602Z,48.10
2022-12-25T22:27:48.763Z,58.00
2022-12-25T22:32:56.431Z,43.00
2022-12-25T22:38:03.306Z,47.20
2022-12-25T22:43:10.246Z,45.00
2022-12-25T22:48:17.360Z,51.00
2022-12-25T22:53:24.414Z,45.60
2022-12-25T22:58:32.582Z,46.00
2022-12-25T23:03:40.094Z,45.10
2022-12-25T23:08:52.909Z,46.80
2022-12-25T23:14:18.156Z,42.70
2022-12-25T23:19:43.464Z,44.90
2022-12-25T23:25:09.795Z,51.50
2022-12-25T23:30:22.882Z,53.60
2022-12-25T23:35:30.201Z,47.90
2022-12-25T23:40:37.623Z,48.00
2022-12-25T23:45:44.885Z,43.90
2022-12-25T23:50:52.169Z,50.80
2022-12-25T23:55:59.955Z,43.80
